Time;durP1;ratioP1;P1;durP2;ratioP2;P2;SDS_P1;SDS_P2;PMS_P1;PMS_P2;Temp;Humidity;BMP_temperature;BMP_pressure;BME280_temperature;BME280_humidity;BME280_pressure;Samples;Min_cycle;Max_cycle;Signal;HPM_P1;HPM_P2
2022/12/29 00:00:50;;;;;;;3.23;2.37;;;;;;;6.80;94.43;153107.22;4979425;28;20434;-77
2022/12/29 00:03:36;;;;;;;3.20;2.60;;;;;;;6.82;94.26;153112.38;4985992;28;20446;-77
2022/12/29 00:06:21;;;;;;;2.77;2.47;;;;;;;6.82;94.17;153112.38;4991134;28;21024;-76
2022/12/29 00:09:06;;;;;;;2.80;2.50;;;;;;;6.94;93.35;153143.34;4988019;28;20932;-77
2022/12/29 00:11:53;;;;;;;5.10;2.33;;;;;;;6.92;94.23;153136.88;4990667;28;20480;-77
2022/12/29 00:17:41;;;;;;;2.53;2.00;;;;;;;7.08;92.94;153179.50;4995222;28;20455;-77
2022/12/29 00:35:45;;;;;;;5.83;2.20;;;;;;;7.18;92.94;153205.31;4992314;28;20982;-77
2022/12/29 00:44:39;;;;;;;2.47;2.10;;;;;;;7.42;91.68;153264.69;4991225;28;20514;-77
2022/12/29 00:47:24;;;;;;;2.60;1.93;;;;;;;7.45;94.00;153272.47;4989691;28;20785;-77
2022/12/29 00:50:09;;;;;;;2.67;1.90;;;;;;;7.33;93.73;153244.03;4991090;28;20442;-77
2022/12/29 00:52:54;;;;;;;2.50;1.93;;;;;;;7.40;93.97;153260.84;4993199;28;20481;-77
2022/12/29 00:55:39;;;;;;;2.60;2.00;;;;;;;7.41;92.33;153262.16;4975639;28;20999;-77
2022/12/29 00:58:28;;;;;;;2.60;1.60;;;;;;;7.48;91.81;153280.22;4979389;28;20440;-77
2022/12/29 01:01:14;;;;;;;4.57;1.90;;;;;;;7.53;91.77;153293.13;4991810;28;20541;-78
2022/12/29 01:04:00;;;;;;;2.63;1.60;;;;;;;7.61;90.62;153315.09;4991171;28;20515;-78
2022/12/29 01:06:45;;;;;;;3.90;2.07;;;;;;;7.64;92.08;153321.56;4986350;28;20465;-78
2022/12/29 01:12:44;;;;;;;2.23;1.90;;;;;;;7.76;91.36;153352.53;4990341;28;20556;-78
2022/12/29 01:15:30;;;;;;;1.70;1.60;;;;;;;7.93;89.63;153396.47;5003364;28;20434;-78
2022/12/29 01:18:17;;;;;;;3.93;2.07;;;;;;;7.89;90.08;153386.13;4977775;28;20846;-78
2022/12/29 01:21:04;;;;;;;2.10;1.40;;;;;;;7.81;89.91;153366.75;4988575;28;20429;-78
2022/12/29 01:23:50;;;;;;;2.20;1.70;;;;;;;7.75;90.35;153349.97;4985046;28;20814;-78
2022/12/29 01:26:35;;;;;;;2.93;2.07;;;;;;;7.83;90.94;153371.94;4986744;28;20446;-78
2022/12/29 01:29:21;;;;;;;3.97;2.00;;;;;;;7.85;90.46;153375.81;4980589;28;20445;-78
2022/12/29 01:32:06;;;;;;;2.23;1.43;;;;;;;7.85;90.36;153375.81;4985168;28;20474;-78
2022/12/29 01:34:53;;;;;;;1.70;1.43;;;;;;;7.93;89.81;153396.47;4985817;28;20585;-78
2022/12/29 01:37:38;;;;;;;3.10;1.80;;;;;;;7.95;89.21;153402.94;4988806;28;20528;-78
2022/12/29 01:40:24;;;;;;;2.90;1.37;;;;;;;8.10;89.06;153440.38;5004277;28;20406;-78
2022/12/29 01:43:12;;;;;;;2.80;1.67;;;;;;;8.15;88.16;153453.34;4990895;28;20437;-78
2022/12/29 01:45:58;;;;;;;2.20;1.50;;;;;;;8.18;88.82;153461.06;4987962;28;20488;-78
2022/12/29 01:48:44;;;;;;;2.13;1.20;;;;;;;8.19;88.00;153462.38;4985698;28;20812;-78
2022/12/29 01:51:31;;;;;;;3.07;1.70;;;;;;;8.23;88.90;153474.03;4983836;28;20492;-78
2022/12/29 01:54:19;;;;;;;1.57;1.33;;;;;;;8.11;89.35;153441.69;4990368;28;20453;-77
2022/12/29 01:57:08;;;;;;;3.27;1.70;;;;;;;8.25;87.75;153479.19;4991802;28;20465;-78
2022/12/29 01:59:56;;;;;;;2.47;1.57;;;;;;;8.22;88.69;153471.44;4991902;28;20437;-78
2022/12/29 02:02:42;;;;;;;1.67;1.33;;;;;;;8.17;88.41;153457.19;4979974;28;20533;-78
2022/12/29 02:05:30;;;;;;;1.77;1.47;;;;;;;8.18;88.40;153461.06;4990911;28;20433;-78
2022/12/29 02:08:17;;;;;;;1.70;1.20;;;;;;;8.18;88.35;153461.06;4992559;28;20437;-85
2022/12/29 02:11:03;;;;;;;2.10;1.40;;;;;;;8.20;88.44;153464.97;4992530;28;20428;-85
2022/12/29 02:13:52;;;;;;;2.00;1.40;;;;;;;8.25;88.85;153479.19;4992183;28;20448;-85
2022/12/29 02:16:48;;;;;;;3.40;1.60;;;;;;;8.32;87.60;153497.31;4993814;28;20809;-85
2022/12/29 02:19:59;;;;;;;1.93;1.40;;;;;;;8.42;88.29;153521.84;4993872;28;20452;-85
2022/12/29 02:22:54;;;;;;;3.70;1.80;;;;;;;8.52;85.75;153549.00;4991554;28;20461;-85
2022/12/29 02:25:59;;;;;;;2.13;1.70;;;;;;;8.43;87.06;153524.47;5007680;28;20440;-85
2022/12/29 02:29:08;;;;;;;2.13;1.13;;;;;;;8.41;87.10;153519.28;4994562;28;20854;-85
2022/12/29 02:31:59;;;;;;;2.20;1.70;;;;;;;8.38;86.86;153512.84;4979695;28;20791;-85
2022/12/29 02:34:53;;;;;;;3.00;1.90;;;;;;;8.34;86.69;153501.22;4987017;28;20485;-85
2022/12/29 02:37:43;;;;;;;2.13;1.63;;;;;;;8.41;87.22;153520.59;4993793;28;20540;-85
2022/12/29 02:40:36;;;;;;;2.03;1.70;;;;;;;8.30;87.20;153492.16;4994246;28;21219;-85
2022/12/29 02:43:26;;;;;;;3.20;1.60;;;;;;;8.48;86.36;153538.69;4994290;28;20445;-85
2022/12/29 02:46:19;;;;;;;4.30;1.90;;;;;;;8.45;86.15;153529.63;4994929;28;20453;-85
2022/12/29 02:49:10;;;;;;;3.67;2.10;;;;;;;8.35;87.46;153503.78;4991775;28;20450;-85
2022/12/29 02:51:59;;;;;;;2.23;1.70;;;;;;;8.49;87.01;153539.97;5003092;28;20481;-85
2022/12/29 02:54:44;;;;;;;2.77;1.63;;;;;;;8.58;86.39;153563.22;4990319;28;20442;-84
2022/12/29 02:57:33;;;;;;;1.40;1.00;;;;;;;8.70;85.10;153592.97;4990397;28;20560;-85
2022/12/29 03:00:19;;;;;;;2.40;1.47;;;;;;;8.65;86.36;153580.03;4992225;28;20442;-85
2022/12/29 03:03:35;;;;;;;1.80;1.30;;;;;;;8.64;86.06;153577.44;4990717;28;20477;-85
2022/12/29 03:06:33;;;;;;;2.73;1.40;;;;;;;8.67;86.21;153586.50;4990370;28;20585;-85
2022/12/29 03:09:27;;;;;;;2.10;1.40;;;;;;;8.57;87.15;153560.66;4971175;28;21112;-85
2022/12/29 03:12:20;;;;;;;2.90;1.23;;;;;;;8.65;85.21;153580.03;4976605;28;20474;-85
2022/12/29 03:18:16;;;;;;;2.80;1.57;;;;;;;8.64;86.18;153577.44;4977721;28;20429;-85
2022/12/29 03:21:05;;;;;;;1.67;1.30;;;;;;;8.75;84.77;153605.91;4986933;28;20450;-85
2022/12/29 03:23:51;;;;;;;3.33;1.60;;;;;;;8.71;85.18;153595.56;4988207;28;20444;-85
2022/12/29 03:26:38;;;;;;;2.57;1.23;;;;;;;8.78;84.47;153614.97;4992641;28;20654;-85
2022/12/29 03:29:23;;;;;;;2.00;1.10;;;;;;;8.76;84.82;153608.50;4992233;28;20426;-85
2022/12/29 03:32:10;;;;;;;2.27;1.17;;;;;;;8.75;84.82;153607.19;4988079;28;20461;-85
2022/12/29 03:34:57;;;;;;;2.07;1.40;;;;;;;8.75;85.15;153605.91;5008762;28;20472;-85
2022/12/29 03:37:50;;;;;;;4.20;1.33;;;;;;;8.79;84.19;153616.25;4974558;28;20446;-85
2022/12/29 03:40:39;;;;;;;2.10;1.57;;;;;;;8.78;84.56;153614.97;4985432;28;20454;-85
2022/12/29 03:43:24;;;;;;;2.70;1.30;;;;;;;8.77;85.06;153611.06;4986771;28;20446;-86
2022/12/29 03:46:10;;;;;;;2.47;1.33;;;;;;;8.80;86.02;153618.81;4991814;28;20449;-85
2022/12/29 03:48:57;;;;;;;1.87;1.37;;;;;;;8.76;86.66;153609.81;4991700;28;20469;-85
2022/12/29 03:51:43;;;;;;;2.00;1.60;;;;;;;8.81;85.73;153621.41;4990087;28;20461;-85
2022/12/29 03:54:28;;;;;;;1.37;1.03;;;;;;;8.93;85.83;153652.44;4989483;28;20425;-85
2022/12/29 03:57:15;;;;;;;2.33;1.60;;;;;;;8.94;86.20;153655.03;4993377;28;20434;-85
2022/12/29 04:00:23;;;;;;;2.47;1.50;;;;;;;8.91;85.77;153648.56;4978455;28;20433;-85
2022/12/29 04:03:08;;;;;;;2.30;1.40;;;;;;;8.84;85.86;153630.44;4985539;28;20439;-85
2022/12/29 04:05:54;;;;;;;1.97;1.27;;;;;;;8.79;86.15;153617.50;5003622;28;20429;-85
2022/12/29 04:08:39;;;;;;;1.50;1.20;;;;;;;8.80;86.68;153618.81;4991663;28;20715;-85
2022/12/29 04:11:25;;;;;;;2.70;1.57;;;;;;;8.77;88.31;153612.34;5000486;28;20453;-85
2022/12/29 04:14:12;;;;;;;3.00;1.40;;;;;;;8.94;87.22;153655.03;4990899;28;20438;-85
2022/12/29 04:16:57;;;;;;;5.30;2.00;;;;;;;8.86;88.29;153634.34;4998788;28;20471;-85
2022/12/29 04:19:43;;;;;;;1.90;1.20;;;;;;;8.81;88.26;153621.41;5004182;28;20513;-85
2022/12/29 04:22:28;;;;;;;3.40;1.80;;;;;;;8.85;88.48;153631.75;4991876;28;20445;-85
2022/12/29 04:25:14;;;;;;;1.90;1.20;;;;;;;8.82;88.12;153625.28;4988443;28;20446;-85
2022/12/29 04:28:00;;;;;;;2.43;1.80;;;;;;;8.79;88.46;153616.25;4990480;28;20579;-85
2022/12/29 04:31:13;;;;;;;1.60;1.33;;;;;;;8.71;89.59;153595.56;4976888;28;20457;-85
2022/12/29 04:34:01;;;;;;;3.27;1.70;;;;;;;8.89;88.56;153642.13;4993201;28;20482;-85
2022/12/29 04:36:46;;;;;;;2.20;1.40;;;;;;;8.97;90.66;153662.81;4982591;28;20451;-85
2022/12/29 04:39:33;;;;;;;3.30;1.70;;;;;;;8.91;90.20;153648.56;4990988;28;20445;-85
2022/12/29 04:42:19;;;;;;;2.13;1.80;;;;;;;8.86;91.59;153635.66;4990400;28;20481;-85
2022/12/29 04:45:05;;;;;;;2.23;1.53;;;;;;;8.94;90.18;153655.03;5001781;28;20428;-85
2022/12/29 04:48:24;;;;;;;2.30;1.70;;;;;;;8.91;90.82;153647.28;4979583;28;20837;-85
2022/12/29 04:51:39;;;;;;;1.97;1.43;;;;;;;8.84;90.47;153629.19;4986052;28;20493;-85
2022/12/29 04:54:27;;;;;;;4.00;1.90;;;;;;;8.86;90.94;153634.34;4996806;28;20423;-85
2022/12/29 04:57:19;;;;;;;2.00;1.60;;;;;;;8.91;91.11;153647.28;5000066;28;20578;-85
2022/12/29 05:00:10;;;;;;;2.33;1.67;;;;;;;8.85;93.40;153631.75;5002140;28;20453;-85
2022/12/29 05:02:56;;;;;;;2.00;1.40;;;;;;;8.86;92.00;153634.34;5002519;28;20469;-85
2022/12/29 05:05:43;;;;;;;2.10;1.53;;;;;;;8.91;90.39;153647.28;4992355;28;20433;-85
2022/12/29 05:08:29;;;;;;;1.90;1.50;;;;;;;8.97;90.82;153662.81;4991412;28;20922;-85
2022/12/29 05:11:17;;;;;;;2.90;1.80;;;;;;;8.98;90.30;153666.66;4991310;28;20462;-85
2022/12/29 05:14:03;;;;;;;2.57;1.70;;;;;;;8.94;91.39;153655.03;4989035;28;20465;-85
2022/12/29 05:16:49;;;;;;;2.20;1.67;;;;;;;8.88;92.27;153640.81;5003817;28;20529;-85
2022/12/29 05:19:34;;;;;;;2.50;1.70;;;;;;;8.94;91.21;153656.34;4989743;28;20448;-85
2022/12/29 05:22:21;;;;;;;2.80;1.73;;;;;;;8.86;91.75;153634.34;4992040;28;20435;-85
2022/12/29 05:25:08;;;;;;;2.67;2.00;;;;;;;8.84;92.08;153629.19;4985472;28;20442;-85
2022/12/29 05:28:04;;;;;;;2.33;1.83;;;;;;;8.86;91.95;153634.34;5000026;28;20492;-85
2022/12/29 05:31:02;;;;;;;2.10;1.23;;;;;;;8.99;90.74;153667.97;4989555;28;21014;-85
2022/12/29 05:33:49;;;;;;;2.07;1.70;;;;;;;8.93;91.12;153653.72;4973473;28;20681;-85
2022/12/29 05:36:34;;;;;;;3.20;1.40;;;;;;;8.88;91.56;153639.50;4991717;28;20581;-85
2022/12/29 05:39:24;;;;;;;2.77;1.93;;;;;;;8.94;92.25;153655.03;4979873;28;20489;-85
2022/12/29 05:42:14;;;;;;;2.10;1.50;;;;;;;8.87;91.37;153638.22;4991695;28;20454;-85
2022/12/29 05:45:23;;;;;;;3.00;1.83;;;;;;;8.99;91.42;153667.97;4992012;28;20464;-85
2022/12/29 05:48:31;;;;;;;2.27;1.67;;;;;;;8.92;91.08;153651.13;4982558;28;20454;-85
2022/12/29 05:51:42;;;;;;;1.77;1.30;;;;;;;8.95;90.16;153657.59;4994579;28;20554;-85
2022/12/29 05:54:29;;;;;;;3.70;1.63;;;;;;;9.00;89.98;153670.56;4985912;28;20435;-85
2022/12/29 05:57:15;;;;;;;2.27;1.47;;;;;;;9.05;89.77;153683.50;4996209;28;20545;-85
2022/12/29 06:00:04;;;;;;;2.47;1.73;;;;;;;8.91;91.59;153647.28;5008483;28;20454;-85
2022/12/29 06:02:59;;;;;;;2.80;1.97;;;;;;;8.91;91.45;153648.56;4990315;28;20448;-85
2022/12/29 06:05:45;;;;;;;2.83;1.53;;;;;;;8.95;90.29;153657.59;4982812;28;20446;-85
2022/12/29 06:08:31;;;;;;;4.37;1.90;;;;;;;9.02;89.73;153675.72;4996225;28;20445;-85
2022/12/29 06:11:18;;;;;;;1.60;1.20;;;;;;;8.99;90.50;153667.97;4982680;28;20457;-85
2022/12/29 06:14:09;;;;;;;2.70;1.60;;;;;;;9.13;87.28;153704.19;4995259;28;20473;-85
2022/12/29 06:16:54;;;;;;;2.50;1.50;;;;;;;9.03;89.62;153678.28;4988509;28;20995;-85
2022/12/29 06:19:40;;;;;;;2.17;1.37;;;;;;;9.00;88.31;153670.56;4994802;28;20453;-85
2022/12/29 06:22:26;;;;;;;3.23;1.33;;;;;;;9.05;87.00;153684.75;4983398;28;20468;-85
2022/12/29 06:25:12;;;;;;;2.10;1.40;;;;;;;9.18;86.05;153717.13;4995573;28;20827;-85
2022/12/29 06:28:00;;;;;;;3.20;1.47;;;;;;;9.18;85.78;153718.41;4996917;28;21102;-85
2022/12/29 06:30:46;;;;;;;2.83;1.80;;;;;;;9.06;87.00;153687.34;4995745;28;20461;-85
2022/12/29 06:33:32;;;;;;;2.03;1.67;;;;;;;8.96;86.30;153660.19;4993972;28;20473;-85
2022/12/29 06:36:17;;;;;;;1.93;1.40;;;;;;;8.84;89.01;153630.44;4996111;28;20956;-86
2022/12/29 06:39:03;;;;;;;2.97;1.30;;;;;;;8.76;87.42;153609.81;5002219;28;20520;-85
2022/12/29 06:41:48;;;;;;;1.90;1.57;;;;;;;8.78;87.81;153613.66;4994697;28;20457;-85
2022/12/29 06:45:01;;;;;;;2.07;1.30;;;;;;;8.81;88.41;153621.41;4978480;28;20472;-85
2022/12/29 06:47:46;;;;;;;2.77;1.63;;;;;;;8.86;86.37;153634.34;4997408;28;20464;-85
2022/12/29 06:50:32;;;;;;;2.80;2.07;;;;;;;8.88;86.72;153640.81;4983159;28;20991;-85
2022/12/29 06:53:17;;;;;;;3.17;1.50;;;;;;;8.88;86.44;153639.50;4995439;28;20541;-85
2022/12/29 06:56:02;;;;;;;2.13;1.53;;;;;;;9.00;85.73;153671.81;4982847;28;20438;-85
2022/12/29 06:58:48;;;;;;;1.73;1.50;;;;;;;8.86;86.12;153635.66;4995999;28;20612;-85
2022/12/29 07:01:35;;;;;;;2.90;1.60;;;;;;;8.85;86.49;153631.75;4983561;28;21035;-85
2022/12/29 07:04:21;;;;;;;3.03;2.00;;;;;;;8.95;85.19;153657.59;4983485;28;20526;-85
2022/12/29 07:07:06;;;;;;;1.87;1.30;;;;;;;8.86;85.59;153635.66;4982935;28;20492;-85
2022/12/29 07:09:52;;;;;;;2.90;1.40;;;;;;;8.82;86.49;153623.97;4981501;28;20545;-85
2022/12/29 07:12:37;;;;;;;4.10;1.60;;;;;;;8.82;86.28;153623.97;4983284;28;20454;-85
2022/12/29 07:15:23;;;;;;;3.10;1.77;;;;;;;8.87;85.85;153636.94;4982687;28;20878;-86
2022/12/29 07:18:09;;;;;;;2.60;1.70;;;;;;;8.85;85.74;153633.03;4983747;28;20488;-86
2022/12/29 07:20:55;;;;;;;2.83;1.37;;;;;;;8.81;86.00;153621.41;4986204;28;21070;-85
2022/12/29 07:23:40;;;;;;;3.77;1.53;;;;;;;8.78;86.91;153614.97;4983492;28;20433;-85
2022/12/29 07:26:26;;;;;;;6.23;1.37;;;;;;;8.81;86.32;153621.41;4981966;28;20906;-85
2022/12/29 07:29:11;;;;;;;3.37;1.67;;;;;;;8.84;86.32;153629.19;4989143;28;20516;-85
2022/12/29 07:31:57;;;;;;;2.50;1.70;;;;;;;8.79;87.36;153616.25;4986247;28;20497;-85
2022/12/29 07:34:45;;;;;;;4.03;2.70;;;;;;;8.73;88.03;153602.03;4982015;28;20536;-85
2022/12/29 07:37:30;;;;;;;4.40;2.70;;;;;;;8.70;88.17;153594.28;4981806;28;20469;-85
2022/12/29 07:40:15;;;;;;;4.67;2.43;;;;;;;8.72;89.08;153599.44;4982100;28;20457;-85
2022/12/29 07:43:01;;;;;;;3.50;2.67;;;;;;;8.71;88.66;153596.81;4982075;28;20960;-85
2022/12/29 07:45:56;;;;;;;2.30;2.10;;;;;;;8.79;88.25;153616.25;4990554;28;20877;-85
2022/12/29 07:48:42;;;;;;;2.40;1.60;;;;;;;8.83;87.68;153626.59;4983397;28;20568;-84
2022/12/29 07:51:29;;;;;;;2.03;1.43;;;;;;;8.86;88.97;153634.34;4984520;28;20571;-85
2022/12/29 07:54:14;;;;;;;2.07;1.53;;;;;;;8.82;88.81;153625.28;4984065;28;21092;-85
2022/12/29 07:57:00;;;;;;;3.30;1.60;;;;;;;8.83;88.69;153626.59;4980113;28;20450;-85
2022/12/29 07:59:45;;;;;;;3.10;1.57;;;;;;;8.93;88.39;153652.44;4982202;28;20442;-85
2022/12/29 08:02:30;;;;;;;2.47;1.63;;;;;;;8.88;88.54;153639.50;4983903;28;20585;-85
2022/12/29 08:05:16;;;;;;;2.93;1.90;;;;;;;9.02;87.67;153675.72;4981318;28;20462;-85
2022/12/29 08:08:03;;;;;;;3.73;1.73;;;;;;;9.04;87.18;153682.19;4983187;28;20466;-85
2022/12/29 08:10:48;;;;;;;2.63;1.57;;;;;;;9.08;87.33;153692.50;4992599;28;20446;-86
2022/12/29 08:13:34;;;;;;;2.20;1.30;;;;;;;9.15;87.31;153709.34;4985032;28;20469;-85
2022/12/29 08:16:19;;;;;;;2.73;1.70;;;;;;;9.20;87.18;153722.28;4980333;28;20503;-85
2022/12/29 08:19:05;;;;;;;2.40;1.40;;;;;;;9.23;86.69;153730.03;4983322;28;20438;-85
2022/12/29 08:21:51;;;;;;;2.27;1.60;;;;;;;9.18;87.56;153718.41;4983137;28;20802;-85
2022/12/29 08:24:37;;;;;;;2.60;1.60;;;;;;;9.24;87.25;153732.59;4981021;28;20450;-85
2022/12/29 08:27:23;;;;;;;2.57;1.50;;;;;;;9.23;89.16;153728.75;4983350;28;20477;-85
2022/12/29 08:30:09;;;;;;;4.73;1.63;;;;;;;9.25;87.47;153735.22;4982059;28;20528;-85
2022/12/29 08:32:54;;;;;;;2.53;1.40;;;;;;;9.39;87.33;153771.44;4988145;28;20466;-85
2022/12/29 08:35:40;;;;;;;1.93;1.57;;;;;;;9.41;87.72;153775.31;4980401;28;20503;-85
2022/12/29 08:38:25;;;;;;;2.30;1.57;;;;;;;9.40;87.21;153774.00;4981855;28;20520;-86
2022/12/29 08:41:12;;;;;;;3.10;1.63;;;;;;;9.50;86.36;153799.91;4980528;28;20454;-85
2022/12/29 08:43:58;;;;;;;2.07;1.50;;;;;;;9.51;87.14;153802.47;4980308;28;20447;-85
2022/12/29 08:46:43;;;;;;;2.90;1.77;;;;;;;9.54;87.00;153810.25;4980613;28;20462;-85
2022/12/29 08:49:28;;;;;;;3.70;1.70;;;;;;;9.69;85.96;153847.72;4979690;28;20451;-85
2022/12/29 08:52:14;;;;;;;2.53;1.80;;;;;;;9.70;85.88;153851.63;4979261;28;20451;-85
2022/12/29 08:54:59;;;;;;;3.40;1.57;;;;;;;9.86;85.32;153890.44;4979898;28;20470;-85
2022/12/29 08:57:46;;;;;;;1.63;1.33;;;;;;;9.80;84.77;153877.50;4996350;28;20518;-85
2022/12/29 09:00:35;;;;;;;1.97;1.63;;;;;;;9.76;84.92;153867.19;4986240;28;22079;-85
2022/12/29 09:03:21;;;;;;;2.60;1.67;;;;;;;9.69;84.95;153849.03;4978441;28;20437;-85
2022/12/29 09:06:07;;;;;;;2.70;2.03;;;;;;;9.66;85.08;153841.25;4980555;28;20454;-85
2022/12/29 09:08:54;;;;;;;2.07;1.37;;;;;;;9.69;86.67;153849.03;4982270;28;20450;-85
2022/12/29 09:11:39;;;;;;;2.90;1.23;;;;;;;9.69;85.00;153847.72;4992879;28;21005;-85
2022/12/29 09:14:26;;;;;;;2.87;1.63;;;;;;;9.76;84.18;153865.88;4982211;28;20587;-85
2022/12/29 09:20:16;;;;;;;1.97;1.50;;;;;;;9.87;85.71;153894.34;4984155;28;20941;-85
2022/12/29 09:23:02;;;;;;;5.83;3.10;;;;;;;9.93;84.14;153908.59;4984378;28;20448;-85
2022/12/29 09:25:48;;;;;;;1.90;1.40;;;;;;;9.97;85.90;153918.91;4988354;28;20521;-85
2022/12/29 09:28:33;;;;;;;2.00;1.47;;;;;;;9.97;85.15;153918.91;4990769;28;21093;-85
2022/12/29 09:31:20;;;;;;;5.33;1.80;;;;;;;10.05;84.99;153939.63;4989745;28;20455;-85
2022/12/29 09:34:06;;;;;;;3.20;2.00;;;;;;;10.11;84.06;153955.19;4982454;28;20489;-85
2022/12/29 09:36:51;;;;;;;4.30;2.67;;;;;;;10.25;83.80;153992.75;4983104;28;20945;-85
2022/12/29 09:39:36;;;;;;;5.93;3.77;;;;;;;10.26;83.42;153994.03;4996766;28;20450;-85
2022/12/29 09:42:26;;;;;;;5.57;4.07;;;;;;;10.22;83.61;153983.66;4984181;28;20441;-85
2022/12/29 09:45:16;;;;;;;2.47;1.90;;;;;;;10.26;83.63;153994.03;4994507;28;20514;-85
2022/12/29 09:48:04;;;;;;;3.50;2.07;;;;;;;10.23;84.04;153986.28;4983550;28;21035;-85
2022/12/29 09:50:52;;;;;;;3.00;1.90;;;;;;;10.31;83.46;154007.00;4984449;28;20478;-85
2022/12/29 09:53:40;;;;;;;2.03;1.57;;;;;;;10.35;83.95;154018.63;4988294;28;20614;-85
2022/12/29 09:56:26;;;;;;;2.70;1.50;;;;;;;10.42;88.49;154035.47;4987473;28;20494;-85
2022/12/29 09:59:15;;;;;;;2.50;1.50;;;;;;;10.50;82.66;154056.19;4984157;28;20515;-85
2022/12/29 10:02:05;;;;;;;3.57;1.93;;;;;;;10.61;83.39;154084.69;4988326;28;20505;-85
2022/12/29 10:04:53;;;;;;;2.20;1.80;;;;;;;10.62;83.33;154085.94;4988885;28;20477;-85
2022/12/29 10:07:44;;;;;;;1.90;1.50;;;;;;;10.55;83.60;154069.13;4986135;28;20457;-85
2022/12/29 10:10:36;;;;;;;2.97;1.80;;;;;;;10.49;86.56;154053.59;4987373;28;20463;-85
2022/12/29 10:13:29;;;;;;;3.17;2.20;;;;;;;10.54;84.27;154066.53;4986965;28;20442;-86
2022/12/29 10:16:18;;;;;;;3.60;3.20;;;;;;;10.58;86.08;154076.91;4983917;28;20463;-85
2022/12/29 10:19:20;;;;;;;3.27;2.43;;;;;;;10.62;85.11;154087.25;4989181;28;20449;-85
2022/12/29 10:22:14;;;;;;;3.97;2.93;;;;;;;10.69;82.89;154105.41;4989264;28;20508;-86
2022/12/29 10:25:02;;;;;;;9.30;4.30;;;;;;;10.71;84.65;154110.56;4983686;28;20453;-86
2022/12/29 10:27:49;;;;;;;5.30;3.07;;;;;;;10.67;85.02;154100.19;4997231;28;21002;-86
2022/12/29 10:30:35;;;;;;;4.63;3.50;;;;;;;10.69;84.32;154104.09;4995093;28;20442;-85
2022/12/29 10:33:27;;;;;;;3.90;2.97;;;;;;;10.74;85.78;154118.34;4987187;28;20917;-85
2022/12/29 10:36:17;;;;;;;3.93;2.80;;;;;;;10.74;84.73;154118.34;4982978;28;20453;-86
2022/12/29 10:39:11;;;;;;;2.60;2.20;;;;;;;10.83;84.69;154141.63;4983326;28;20442;-85
2022/12/29 10:42:01;;;;;;;4.70;2.53;;;;;;;10.80;86.07;154133.84;4982948;28;20601;-86
2022/12/29 10:44:46;;;;;;;5.37;2.80;;;;;;;10.84;85.71;154142.94;4983367;28;20604;-85
2022/12/29 10:47:35;;;;;;;2.90;2.13;;;;;;;10.93;86.84;154166.28;4983825;28;20917;-86
2022/12/29 10:50:25;;;;;;;4.30;2.30;;;;;;;10.96;85.64;154174.06;4981940;28;20523;-85
2022/12/29 10:53:18;;;;;;;2.80;2.43;;;;;;;11.17;85.32;154227.16;4984238;28;21065;-86
2022/12/29 10:56:10;;;;;;;4.40;2.33;;;;;;;11.24;85.14;154246.56;4983343;28;20443;-86
2022/12/29 10:58:56;;;;;;;2.63;1.83;;;;;;;11.22;83.81;154240.09;4981639;28;20524;-86
2022/12/29 11:01:46;;;;;;;2.27;1.60;;;;;;;11.38;82.90;154281.56;4988020;28;20489;-86
2022/12/29 11:04:44;;;;;;;2.80;1.97;;;;;;;11.33;83.52;154268.59;4987017;28;20912;-86
2022/12/29 11:07:31;;;;;;;4.40;2.30;;;;;;;11.36;83.81;154277.63;4983103;28;20948;-85
2022/12/29 11:10:18;;;;;;;3.73;2.53;;;;;;;11.41;84.82;154290.59;4995869;28;20622;-86
2022/12/29 11:13:12;;;;;;;4.20;2.67;;;;;;;11.44;84.03;154297.06;4979592;28;20598;-86
2022/12/29 11:15:57;;;;;;;5.00;2.50;;;;;;;11.36;83.50;154277.63;4982779;28;20474;-86
2022/12/29 11:18:47;;;;;;;4.57;3.00;;;;;;;11.46;81.54;154302.28;4982979;28;20945;-86
2022/12/29 11:21:39;;;;;;;3.90;2.30;;;;;;;11.45;84.31;154299.69;4988667;28;20509;-86
2022/12/29 11:24:27;;;;;;;3.90;2.20;;;;;;;11.48;85.45;154307.47;4983692;28;20436;-86
2022/12/29 11:27:16;;;;;;;3.20;2.30;;;;;;;11.46;85.62;154302.28;4987179;28;20462;-86
2022/12/29 11:30:03;;;;;;;4.50;2.70;;;;;;;11.42;85.92;154291.91;4984402;28;20457;-86
2022/12/29 11:32:52;;;;;;;3.80;2.33;;;;;;;11.45;87.49;154299.69;4982605;28;20458;-86
2022/12/29 11:35:41;;;;;;;2.07;1.70;;;;;;;11.51;84.69;154315.25;4979791;28;21123;-86
2022/12/29 11:38:31;;;;;;;2.90;2.00;;;;;;;11.34;86.70;154272.47;4985118;28;20460;-86
2022/12/29 11:41:22;;;;;;;4.83;2.07;;;;;;;11.36;88.62;154276.34;4981557;28;20461;-86
2022/12/29 11:44:12;;;;;;;3.20;1.90;;;;;;;11.37;89.10;154280.25;4981792;28;20498;-85
2022/12/29 11:46:59;;;;;;;2.20;2.00;;;;;;;11.25;92.28;154249.13;4982760;28;20460;-85
2022/12/29 11:49:50;;;;;;;3.67;1.83;;;;;;;11.25;91.54;154249.13;4982167;28;20957;-85
2022/12/29 11:52:39;;;;;;;4.27;2.00;;;;;;;11.25;90.72;154247.88;4992243;28;20463;-86
2022/12/29 11:55:26;;;;;;;5.43;2.20;;;;;;;11.20;93.15;154234.94;4982246;28;21017;-85
2022/12/29 11:58:15;;;;;;;2.33;1.70;;;;;;;11.26;91.62;154250.44;4981886;28;20440;-85
2022/12/29 12:01:02;;;;;;;2.07;1.57;;;;;;;11.27;90.53;154254.34;4981482;28;20869;-85
2022/12/29 12:03:53;;;;;;;2.87;1.93;;;;;;;11.34;88.61;154272.47;4982237;28;20566;-85
2022/12/29 12:06:45;;;;;;;2.70;1.40;;;;;;;11.26;90.66;154251.75;4980906;28;21005;-85
2022/12/29 12:09:35;;;;;;;2.60;1.97;;;;;;;11.26;89.18;154250.44;4980432;28;20497;-85
2022/12/29 12:12:24;;;;;;;3.67;1.63;;;;;;;11.25;91.89;154247.88;4980243;28;20463;-86
2022/12/29 12:15:16;;;;;;;2.07;1.30;;;;;;;11.25;88.93;154249.13;4991221;28;20866;-85
2022/12/29 12:18:12;;;;;;;2.03;1.40;;;;;;;11.33;89.15;154268.59;4981923;28;20499;-85
2022/12/29 12:21:05;;;;;;;3.60;1.60;;;;;;;11.27;89.24;154253.03;4994693;28;20502;-85
2022/12/29 12:24:05;;;;;;;4.27;1.53;;;;;;;11.27;88.36;154253.03;4983320;28;20452;-85
2022/12/29 12:26:59;;;;;;;2.10;1.10;;;;;;;11.21;89.77;154237.47;4980749;28;20526;-86
2022/12/29 12:29:51;;;;;;;5.40;2.00;;;;;;;11.19;89.46;154232.31;4982600;28;20581;-85
2022/12/29 12:32:42;;;;;;;2.63;1.53;;;;;;;11.20;91.65;154234.94;4982057;28;20454;-85
2022/12/29 12:35:35;;;;;;;3.43;1.40;;;;;;;11.31;92.08;154263.38;4981284;28;20486;-86
2022/12/29 12:38:30;;;;;;;2.63;1.73;;;;;;;11.35;91.09;154273.78;4981900;28;20477;-86
2022/12/29 12:41:20;;;;;;;3.47;1.53;;;;;;;11.28;93.27;154255.66;4980843;28;20438;-85
2022/12/29 12:44:12;;;;;;;2.50;1.50;;;;;;;11.27;93.61;154253.03;4980107;28;20607;-85
2022/12/29 12:47:22;;;;;;;2.23;1.60;;;;;;;11.24;97.25;154245.25;4992276;28;20454;-85
2022/12/29 12:50:20;;;;;;;4.17;2.27;;;;;;;11.14;97.90;154219.38;4980672;28;20839;-85
2022/12/29 12:53:17;;;;;;;2.83;1.73;;;;;;;11.10;99.81;154208.97;4981970;28;20465;-85
2022/12/29 12:56:19;;;;;;;4.60;1.80;;;;;;;11.01;98.52;154188.25;4980666;28;21634;-86
2022/12/29 12:59:08;;;;;;;2.97;2.23;;;;;;;10.98;98.08;154180.53;5000474;28;20528;-85
2022/12/29 13:01:59;;;;;;;3.43;1.67;;;;;;;10.99;98.77;154183.09;4984488;28;20468;-85
2022/12/29 13:05:19;;;;;;;4.20;2.03;;;;;;;10.95;99.64;154172.75;4982387;28;20584;-85
2022/12/29 13:08:28;;;;;;;3.00;2.00;;;;;;;10.99;99.13;154181.78;4990034;28;20454;-86
2022/12/29 13:11:21;;;;;;;2.80;2.00;;;;;;;10.98;98.96;154180.53;4984575;28;21060;-85
2022/12/29 13:14:18;;;;;;;3.47;1.70;;;;;;;10.98;99.65;154180.53;4982558;28;20572;-85
2022/12/29 13:17:08;;;;;;;2.10;1.80;;;;;;;10.96;99.74;154175.31;4982474;28;20537;-85
2022/12/29 13:19:56;;;;;;;2.60;2.40;;;;;;;10.96;98.67;154175.31;4980818;28;20583;-86
2022/12/29 13:22:46;;;;;;;3.90;2.50;;;;;;;10.98;99.99;154180.53;4979944;28;20535;-86
2022/12/29 13:25:38;;;;;;;1.83;1.40;;;;;;;10.98;97.71;154180.53;4980255;28;20808;-86
2022/12/29 13:28:29;;;;;;;2.73;1.90;;;;;;;11.01;99.78;154187.00;4981195;28;20554;-85
2022/12/29 13:31:18;;;;;;;2.53;1.87;;;;;;;11.04;96.56;154194.72;4991531;28;20807;-85
2022/12/29 13:34:09;;;;;;;3.43;1.93;;;;;;;11.14;96.03;154219.38;4996700;28;20569;-85
2022/12/29 13:36:57;;;;;;;2.20;1.73;;;;;;;11.04;96.95;154193.47;4980412;28;20453;-85
2022/12/29 13:39:45;;;;;;;2.10;1.33;;;;;;;11.04;96.32;154194.72;4981267;28;20775;-85
2022/12/29 13:42:30;;;;;;;2.10;1.37;;;;;;;11.08;96.19;154205.13;4981836;28;20546;-86
2022/12/29 13:45:19;;;;;;;2.70;1.90;;;;;;;11.02;95.78;154190.84;4982720;28;20497;-86
2022/12/29 13:48:08;;;;;;;4.47;2.30;;;;;;;11.10;97.07;154210.28;4982253;28;20446;-86